الصفحة الرئيسية
METAR-TAF:

METAR-TAF

مطار :

بوبوديولاسو, بوركينا فاسو

دائرة عرض: 11-10N, خط طول: 004-19W, ارتفاع: 460 متر

مراقبة الطقس الحالي

تاريخ ووقت الإصدار 53 دقيقة قبل الساعة 09:00UTC
ريح 11 عقدة من الشمال الشرقي, الاتجاه يتراوح بين الشمال و الشرق
درجة الحرارة 30°درجة مئوية
الرطوبة 13%
ضغط 1015 hPa
الرؤية: 4000 متر
غبار,

METAR: DFOO 150900Z 04011KT 010V080 4000 DU NSC 30/M01 Q1015

زمن: 09:53 (09:53 UTC)

توقعات

تاريخ ووقت الإصدار 10ساعات و 53 دقيقة قبل الساعة 23:00UTC
التوقعات صالحة من15 الساعة 00 UTC إلى 15 الساعة 24 UTC
ريح 8 عقدةمن اتجاهات متغيرة
الرؤية: 3500 متر
غبار
أصبح
من 15 الساعة 05 UTC إلى 15 الساعة 07 UTC
الرؤية: 2500 متر
غبار
أصبح
من 15 الساعة 12 UTC إلى 15 الساعة 14 UTC
الرؤية: 3500 متر
غبار,

TAF: DFOO 142300Z 1500/1524 VRB08KT 3500 DU NSC BECMG 1505/1507 2500 DU BECMG 1512/1514 3500 DU

أرصاد الطقس والتوقعات من أكثر من 4000 مطار (تقارير الطقس للمطار METAR والتنبؤ بالطقس بالمطارTAF).

المحطات المتاحة هي النقط الصفراء والحمراء على الخريطة.

حرك المؤشر فوق النقطة لمعرفة اسم المحطة.

ثم انقر لمعرفة أرصاد وتوقعات الطقس.

لتغيير الخارطة: اضغط على الأزرار الخضراء مع رمز الصليب الأسود للتكبير. على الزر الأخضر مع شرطة للتصغير، أو على الأسهم الخضراء للخرائط المجاورة.


METAR-TAF: